Adelia — 5BNZ4 — position and weather

sailwx.info

Track history (hours):
 
Tides and Currents Weather Stations Pressure Air Temp Water Temp Dewpoint Dewpoint Depression Visibility Wind Speed Wind Dir Waves Ship Positions

Adelia

Last reported at 2017-Sep-21 02:21 UTC. Time now 2017-Sep-23 05:58 UTC.
Position N 36°03' W 009°07'.

Length 91 m; draft 6 m.

Type: Tanker. MMSI: 209003000.

Date/timePositionNaut miles runAvg speedWind from/ knotsBaromVisibWave heightAir tempDewpointWater temp
2017-Sep-21 02:21N 36°03' W 009°07'410.1
2017-Sep-21 02:00N 36°06' W 009°09'510.0
2017-Sep-21 01:31N 36°10' W 009°12'510.0
2017-Sep-21 01:01N 36°14' W 009°16'510.2
2017-Sep-21 00:29N 36°19' W 009°19'510.0
2017-Sep-21 00:00N 36°23' W 009°22'5 9.9
2017-Sep-20 23:30N 36°27' W 009°25'510.2
2017-Sep-20 23:00N 36°32' W 009°29'510.0
2017-Sep-20 22:30N 36°36' W 009°32'5 9.9
2017-Sep-20 22:01N 36°40' W 009°35'3110.1
2017-Sep-20 18:53N 37°10' W 009°46'4 9.9
2017-Sep-20 18:31N 37°14' W 009°47'8 9.9
2017-Sep-20 17:41N 37°22' W 009°49'310.1
2017-Sep-20 17:22N 37°25' W 009°50'410.2
2017-Sep-20 17:00N 37°29' W 009°51'510.3
2017-Sep-20 16:31N 37°34' W 009°53'610.3
2017-Sep-20 15:54N 37°40' W 009°54'1110.3
2017-Sep-20 14:52N 37°50' W 009°58'910.0
2017-Sep-20 13:57N 37°59' W 010°00'510.2
2017-Sep-20 13:28N 38°04' W 010°01'510.3
2017-Sep-20 13:00N 38°08' W 010°03'510.1
2017-Sep-20 12:31N 38°13' W 010°04'5 9.5
2017-Sep-20 12:00N 38°18' W 010°06'5 9.3
2017-Sep-20 11:30N 38°23' W 010°07'5 9.9
2017-Sep-20 11:01N 38°27' W 010°09'810.2
2017-Sep-20 10:12N 38°35' W 010°11'310.4
2017-Sep-20 09:56N 38°38' W 010°12'511.9
2017-Sep-20 09:30N 38°43' W 010°13'611.7
2017-Sep-20 09:00N 38°49' W 010°12'610.8
2017-Sep-20 08:30N 38°54' W 010°13'510.6
2017-Sep-20 08:01N 38°60' W 010°12'510.5
2017-Sep-20 07:30N 39°05' W 010°12'510.3
2017-Sep-20 07:00N 39°10' W 010°12'510.2
2017-Sep-20 06:31N 39°15' W 010°13'510.2
2017-Sep-20 06:00N 39°20' W 010°12'510.1
2017-Sep-20 05:30N 39°25' W 010°12'11 9.9
2017-Sep-20 04:23N 39°37' W 010°13'610.1
2017-Sep-20 03:48N 39°42' W 010°12'  
2017-Sep-15 22:36N 39°30' W 009°50'2 7.0
2017-Sep-15 22:23N 39°28' W 009°50'3 7.6
2017-Sep-15 22:00N 39°25' W 009°50'4 7.4
2017-Sep-15 21:28N 39°21' W 009°50'4 7.9
2017-Sep-15 21:00N 39°18' W 009°50'4 7.8
2017-Sep-15 20:30N 39°14' W 009°50'4 8.2
2017-Sep-15 20:00N 39°10' W 009°50'4 8.6
2017-Sep-15 19:30N 39°05' W 009°50'4 8.4
2017-Sep-15 19:00N 39°01' W 009°50'4 8.3
2017-Sep-15 18:30N 38°57' W 009°50'4 8.2
2017-Sep-15 18:00N 38°53' W 009°50'4 8.3
2017-Sep-15 17:30N 38°49' W 009°50'4 8.1
2017-Sep-15 17:00N 38°45' W 009°50'4 7.6
2017-Sep-15 16:30N 38°41' W 009°50'4 7.6
2017-Sep-15 16:00N 38°37' W 009°49'4 7.3
2017-Sep-15 15:30N 38°34' W 009°48'4 7.7
2017-Sep-15 15:00N 38°30' W 009°47'4 7.4
2017-Sep-15 14:30N 38°26' W 009°46'3 7.0
2017-Sep-15 14:00N 38°23' W 009°44'4 7.5
2017-Sep-15 13:30N 38°19' W 009°44'4 7.8
2017-Sep-15 13:00N 38°16' W 009°42'4 7.3
2017-Sep-15 12:30N 38°12' W 009°41'4 7.2
2017-Sep-15 12:00N 38°08' W 009°40'4 7.4
2017-Sep-15 11:30N 38°05' W 009°40'3 6.9
2017-Sep-15 11:00N 38°01' W 009°38'4 7.3
2017-Sep-15 10:30N 37°58' W 009°37'3 6.3
2017-Sep-15 09:57N 37°55' W 009°36'3 6.7
2017-Sep-15 09:29N 37°52' W 009°35'3 5.9
2017-Sep-15 08:58N 37°49' W 009°34'5 6.2
2017-Sep-15 08:06N 37°43' W 009°33'1 6.0
2017-Sep-15 07:59N 37°43' W 009°33'38 6.3
2017-Sep-15 01:58N 37°06' W 009°22'3 6.5
2017-Sep-15 01:29N 37°03' W 009°21'10 6.4
2017-Sep-14 23:59N 36°53' W 009°18'4 7.0
2017-Sep-14 23:28N 36°51' W 009°15'4 7.4
2017-Sep-14 22:58N 36°48' W 009°12'4 8.1
2017-Sep-14 22:30N 36°45' W 009°09'7 9.5
2017-Sep-14 21:46N 36°39' W 009°05'3 9.9
2017-Sep-14 21:28N 36°37' W 009°03'5 9.9
2017-Sep-14 21:00N 36°32' W 009°01'5 9.9
2017-Sep-14 20:30N 36°28' W 008°58'510.0
2017-Sep-14 20:00N 36°23' W 008°56'510.3
2017-Sep-14 19:30N 36°19' W 008°53'510.4
2017-Sep-14 19:00N 36°14' W 008°51'510.4
2017-Sep-14 18:30N 36°09' W 008°48'510.4
2017-Sep-14 18:00N 36°05' W 008°45'510.4
2017-Sep-14 17:30N 35°60' W 008°42'510.4
2017-Sep-14 17:00N 35°55' W 008°40'510.5
2017-Sep-14 16:30N 35°50' W 008°37'510.6
2017-Sep-14 16:00N 35°46' W 008°34'510.6
2017-Sep-14 15:30N 35°41' W 008°31'910.8
2017-Sep-14 14:41N 35°33' W 008°27'410.7
2017-Sep-14 14:19N 35°29' W 008°26'311.0
2017-Sep-14 14:00N 35°26' W 008°24'  
Track history (hours):
 
Tides and Currents Weather Stations Pressure Air Temp Water Temp Dewpoint Dewpoint Depression Visibility Wind Speed Wind Dir Waves Ship Positions

Adelia

Last reported at 2017-Sep-21 02:21 UTC. Time now 2017-Sep-23 05:59 UTC.
Position N 36°03' W 009°07'.

Length 91 m; draft 6 m.

Type: Tanker. MMSI: 209003000.

Date/timePositionNaut miles runAvg speedWind from/ knotsBaromVisibWave heightAir tempDewpointWater temp
2017-Sep-21 02:21N 36°03' W 009°07'410.1
2017-Sep-21 02:00N 36°06' W 009°09'510.0
2017-Sep-21 01:31N 36°10' W 009°12'510.0
2017-Sep-21 01:01N 36°14' W 009°16'510.2
2017-Sep-21 00:29N 36°19' W 009°19'510.0
2017-Sep-21 00:00N 36°23' W 009°22'5 9.9
2017-Sep-20 23:30N 36°27' W 009°25'510.2
2017-Sep-20 23:00N 36°32' W 009°29'510.0
2017-Sep-20 22:30N 36°36' W 009°32'5 9.9
2017-Sep-20 22:01N 36°40' W 009°35'3110.1
2017-Sep-20 18:53N 37°10' W 009°46'4 9.9
2017-Sep-20 18:31N 37°14' W 009°47'8 9.9
2017-Sep-20 17:41N 37°22' W 009°49'310.1
2017-Sep-20 17:22N 37°25' W 009°50'410.2
2017-Sep-20 17:00N 37°29' W 009°51'510.3
2017-Sep-20 16:31N 37°34' W 009°53'610.3
2017-Sep-20 15:54N 37°40' W 009°54'1110.3
2017-Sep-20 14:52N 37°50' W 009°58'910.0
2017-Sep-20 13:57N 37°59' W 010°00'510.2
2017-Sep-20 13:28N 38°04' W 010°01'510.3
2017-Sep-20 13:00N 38°08' W 010°03'510.1
2017-Sep-20 12:31N 38°13' W 010°04'5 9.5
2017-Sep-20 12:00N 38°18' W 010°06'5 9.3
2017-Sep-20 11:30N 38°23' W 010°07'5 9.9
2017-Sep-20 11:01N 38°27' W 010°09'810.2
2017-Sep-20 10:12N 38°35' W 010°11'310.4
2017-Sep-20 09:56N 38°38' W 010°12'511.9
2017-Sep-20 09:30N 38°43' W 010°13'611.7
2017-Sep-20 09:00N 38°49' W 010°12'610.8
2017-Sep-20 08:30N 38°54' W 010°13'510.6
2017-Sep-20 08:01N 38°60' W 010°12'510.5
2017-Sep-20 07:30N 39°05' W 010°12'510.3
2017-Sep-20 07:00N 39°10' W 010°12'510.2
2017-Sep-20 06:31N 39°15' W 010°13'510.2
2017-Sep-20 06:00N 39°20' W 010°12'510.1
2017-Sep-20 05:30N 39°25' W 010°12'11 9.9
2017-Sep-20 04:23N 39°37' W 010°13'610.1
2017-Sep-20 03:48N 39°42' W 010°12'  
2017-Sep-15 22:36N 39°30' W 009°50'2 7.0
2017-Sep-15 22:23N 39°28' W 009°50'3 7.6
2017-Sep-15 22:00N 39°25' W 009°50'4 7.4
2017-Sep-15 21:28N 39°21' W 009°50'4 7.9
2017-Sep-15 21:00N 39°18' W 009°50'4 7.8
2017-Sep-15 20:30N 39°14' W 009°50'4 8.2
2017-Sep-15 20:00N 39°10' W 009°50'4 8.6
2017-Sep-15 19:30N 39°05' W 009°50'4 8.4
2017-Sep-15 19:00N 39°01' W 009°50'4 8.3
2017-Sep-15 18:30N 38°57' W 009°50'4 8.2
2017-Sep-15 18:00N 38°53' W 009°50'4 8.3
2017-Sep-15 17:30N 38°49' W 009°50'4 8.1
2017-Sep-15 17:00N 38°45' W 009°50'4 7.6
2017-Sep-15 16:30N 38°41' W 009°50'4 7.6
2017-Sep-15 16:00N 38°37' W 009°49'4 7.3
2017-Sep-15 15:30N 38°34' W 009°48'4 7.7
2017-Sep-15 15:00N 38°30' W 009°47'4 7.4
2017-Sep-15 14:30N 38°26' W 009°46'3 7.0
2017-Sep-15 14:00N 38°23' W 009°44'4 7.5
2017-Sep-15 13:30N 38°19' W 009°44'4 7.8
2017-Sep-15 13:00N 38°16' W 009°42'4 7.3
2017-Sep-15 12:30N 38°12' W 009°41'4 7.2
2017-Sep-15 12:00N 38°08' W 009°40'4 7.4
2017-Sep-15 11:30N 38°05' W 009°40'3 6.9
2017-Sep-15 11:00N 38°01' W 009°38'4 7.3
2017-Sep-15 10:30N 37°58' W 009°37'3 6.3
2017-Sep-15 09:57N 37°55' W 009°36'3 6.7
2017-Sep-15 09:29N 37°52' W 009°35'3 5.9
2017-Sep-15 08:58N 37°49' W 009°34'5 6.2
2017-Sep-15 08:06N 37°43' W 009°33'1 6.0
2017-Sep-15 07:59N 37°43' W 009°33'38 6.3
2017-Sep-15 01:58N 37°06' W 009°22'3 6.5
2017-Sep-15 01:29N 37°03' W 009°21'10 6.4
2017-Sep-14 23:59N 36°53' W 009°18'4 7.0
2017-Sep-14 23:28N 36°51' W 009°15'4 7.4
2017-Sep-14 22:58N 36°48' W 009°12'4 8.1
2017-Sep-14 22:30N 36°45' W 009°09'7 9.5
2017-Sep-14 21:46N 36°39' W 009°05'3 9.9
2017-Sep-14 21:28N 36°37' W 009°03'5 9.9
2017-Sep-14 21:00N 36°32' W 009°01'5 9.9
2017-Sep-14 20:30N 36°28' W 008°58'510.0
2017-Sep-14 20:00N 36°23' W 008°56'510.3
2017-Sep-14 19:30N 36°19' W 008°53'510.4
2017-Sep-14 19:00N 36°14' W 008°51'510.4
2017-Sep-14 18:30N 36°09' W 008°48'510.4
2017-Sep-14 18:00N 36°05' W 008°45'510.4
2017-Sep-14 17:30N 35°60' W 008°42'510.4
2017-Sep-14 17:00N 35°55' W 008°40'510.5
2017-Sep-14 16:30N 35°50' W 008°37'510.6
2017-Sep-14 16:00N 35°46' W 008°34'510.6
2017-Sep-14 15:30N 35°41' W 008°31'910.8
2017-Sep-14 14:41N 35°33' W 008°27'410.7
2017-Sep-14 14:19N 35°29' W 008°26'311.0
2017-Sep-14 14:00N 35°26' W 008°24'  

Dump ship's entire track history